sensor_id;sensor_type;location;lat;lon;timestamp;noise_LAeq;noise_LA_min;noise_LA_max;noise_LA01;noise_LA95
81493;Laerm;70900;51.798;10.954;2024-02-04T00:02:17;31.34;25.87;41.80;;
81493;Laerm;70900;51.798;10.954;2024-02-04T00:04:42;36.01;25.43;57.93;;
81493;Laerm;70900;51.798;10.954;2024-02-04T00:07:08;28.51;25.03;37.09;;
81493;Laerm;70900;51.798;10.954;2024-02-04T00:09:33;31.05;26.20;45.42;;
81493;Laerm;70900;51.798;10.954;2024-02-04T00:11:59;32.98;26.02;53.51;;
81493;Laerm;70900;51.798;10.954;2024-02-04T00:14:28;32.14;25.13;41.31;;
81493;Laerm;70900;51.798;10.954;2024-02-04T00:16:54;48.40;27.39;64.41;;
81493;Laerm;70900;51.798;10.954;2024-02-04T00:19:19;36.26;26.65;44.61;;
81493;Laerm;70900;51.798;10.954;2024-02-04T00:21:44;29.50;26.07;35.62;;
81493;Laerm;70900;51.798;10.954;2024-02-04T00:24:10;30.33;25.18;41.02;;
81493;Laerm;70900;51.798;10.954;2024-02-04T00:26:35;31.01;26.39;37.39;;
81493;Laerm;70900;51.798;10.954;2024-02-04T00:29:00;37.02;29.46;49.17;;
81493;Laerm;70900;51.798;10.954;2024-02-04T00:31:26;39.36;34.38;45.07;;
81493;Laerm;70900;51.798;10.954;2024-02-04T00:33:51;40.94;35.44;60.88;;
81493;Laerm;70900;51.798;10.954;2024-02-04T00:36:16;47.63;29.92;67.91;;
81493;Laerm;70900;51.798;10.954;2024-02-04T00:38:43;47.89;29.14;63.92;;
81493;Laerm;70900;51.798;10.954;2024-02-04T00:41:08;34.03;27.74;42.28;;
81493;Laerm;70900;51.798;10.954;2024-02-04T00:43:34;30.82;26.87;37.26;;
81493;Laerm;70900;51.798;10.954;2024-02-04T00:45:59;30.23;25.77;43.37;;
81493;Laerm;70900;51.798;10.954;2024-02-04T00:48:26;28.47;25.15;39.33;;
81493;Laerm;70900;51.798;10.954;2024-02-04T00:50:52;51.66;25.42;68.77;;
81493;Laerm;70900;51.798;10.954;2024-02-04T00:53:17;27.59;24.15;47.63;;
81493;Laerm;70900;51.798;10.954;2024-02-04T00:55:42;38.19;24.43;67.05;;
81493;Laerm;70900;51.798;10.954;2024-02-04T00:58:08;31.44;24.03;60.76;;
81493;Laerm;70900;51.798;10.954;2024-02-04T01:00:33;32.73;25.79;58.25;;
81493;Laerm;70900;51.798;10.954;2024-02-04T01:02:58;35.12;25.78;54.87;;
81493;Laerm;70900;51.798;10.954;2024-02-04T01:05:24;36.94;32.68;42.00;;
81493;Laerm;70900;51.798;10.954;2024-02-04T01:07:49;32.32;26.83;39.38;;
81493;Laerm;70900;51.798;10.954;2024-02-04T01:10:15;30.21;26.40;40.72;;
81493;Laerm;70900;51.798;10.954;2024-02-04T01:12:40;28.98;25.10;47.77;;
81493;Laerm;70900;51.798;10.954;2024-02-04T01:15:06;28.33;24.96;45.40;;
81493;Laerm;70900;51.798;10.954;2024-02-04T01:17:31;27.55;24.84;34.90;;
81493;Laerm;70900;51.798;10.954;2024-02-04T01:19:58;29.12;25.37;42.50;;
81493;Laerm;70900;51.798;10.954;2024-02-04T01:22:23;28.51;24.83;42.28;;
81493;Laerm;70900;51.798;10.954;2024-02-04T01:24:51;27.62;24.93;38.82;;
81493;Laerm;70900;51.798;10.954;2024-02-04T01:27:17;26.15;23.33;33.08;;
81493;Laerm;70900;51.798;10.954;2024-02-04T01:29:42;26.47;23.22;41.15;;
81493;Laerm;70900;51.798;10.954;2024-02-04T01:32:07;28.04;23.51;39.85;;
81493;Laerm;70900;51.798;10.954;2024-02-04T01:34:33;26.58;23.65;37.68;;
81493;Laerm;70900;51.798;10.954;2024-02-04T01:36:58;27.01;24.36;35.73;;
81493;Laerm;70900;51.798;10.954;2024-02-04T01:39:23;27.15;24.24;37.21;;
81493;Laerm;70900;51.798;10.954;2024-02-04T01:41:49;29.77;24.79;38.22;;
81493;Laerm;70900;51.798;10.954;2024-02-04T01:44:16;53.46;25.11;70.41;;
81493;Laerm;70900;51.798;10.954;2024-02-04T01:46:41;42.17;26.03;63.94;;
81493;Laerm;70900;51.798;10.954;2024-02-04T01:49:07;26.84;23.94;32.67;;
81493;Laerm;70900;51.798;10.954;2024-02-04T01:51:33;27.23;24.48;34.32;;
81493;Laerm;70900;51.798;10.954;2024-02-04T01:53:59;26.80;24.13;33.32;;
81493;Laerm;70900;51.798;10.954;2024-02-04T01:56:24;50.94;25.05;69.24;;
81493;Laerm;70900;51.798;10.954;2024-02-04T01:58:50;28.87;24.58;38.99;;
81493;Laerm;70900;51.798;10.954;2024-02-04T02:01:16;29.76;24.96;40.96;;
81493;Laerm;70900;51.798;10.954;2024-02-04T02:03:41;26.39;23.57;39.48;;
81493;Laerm;70900;51.798;10.954;2024-02-04T02:06:06;27.05;24.58;35.95;;
81493;Laerm;70900;51.798;10.954;2024-02-04T02:08:32;29.01;23.87;40.94;;
81493;Laerm;70900;51.798;10.954;2024-02-04T02:11:08;30.46;25.15;39.75;;
81493;Laerm;70900;51.798;10.954;2024-02-04T02:13:36;29.42;24.97;36.99;;
81493;Laerm;70900;51.798;10.954;2024-02-04T02:16:16;29.72;26.57;36.79;;
81493;Laerm;70900;51.798;10.954;2024-02-04T02:18:48;28.72;24.43;38.94;;
81493;Laerm;70900;51.798;10.954;2024-02-04T02:21:26;30.46;24.77;39.22;;
81493;Laerm;70900;51.798;10.954;2024-02-04T02:26:26;29.13;25.71;40.67;;
81493;Laerm;70900;51.798;10.954;2024-02-04T02:28:52;30.12;24.99;44.42;;
81493;Laerm;70900;51.798;10.954;2024-02-04T02:31:17;37.32;28.70;54.51;;
81493;Laerm;70900;51.798;10.954;2024-02-04T02:33:42;29.12;24.81;40.52;;
81493;Laerm;70900;51.798;10.954;2024-02-04T02:36:09;29.36;25.43;38.11;;
81493;Laerm;70900;51.798;10.954;2024-02-04T02:38:44;46.82;25.15;64.18;;
81493;Laerm;70900;51.798;10.954;2024-02-04T02:41:11;27.78;24.57;34.85;;
81493;Laerm;70900;51.798;10.954;2024-02-04T02:43:38;37.85;25.04;54.26;;
81493;Laerm;70900;51.798;10.954;2024-02-04T02:46:05;30.10;25.01;37.17;;
81493;Laerm;70900;51.798;10.954;2024-02-04T02:48:32;27.19;24.54;41.94;;
81493;Laerm;70900;51.798;10.954;2024-02-04T02:50:57;28.98;25.17;38.98;;
81493;Laerm;70900;51.798;10.954;2024-02-04T02:53:23;31.47;26.10;47.71;;
81493;Laerm;70900;51.798;10.954;2024-02-04T02:55:48;34.01;26.33;50.01;;
81493;Laerm;70900;51.798;10.954;2024-02-04T02:58:14;30.40;26.39;41.20;;
81493;Laerm;70900;51.798;10.954;2024-02-04T03:00:39;33.41;25.90;45.70;;
81493;Laerm;70900;51.798;10.954;2024-02-04T03:03:05;32.15;26.88;43.45;;
81493;Laerm;70900;51.798;10.954;2024-02-04T03:05:30;49.74;27.92;64.63;;
81493;Laerm;70900;51.798;10.954;2024-02-04T03:07:56;43.81;27.15;68.12;;
81493;Laerm;70900;51.798;10.954;2024-02-04T03:10:22;29.95;24.90;38.09;;
81493;Laerm;70900;51.798;10.954;2024-02-04T03:12:47;26.81;24.18;34.30;;
81493;Laerm;70900;51.798;10.954;2024-02-04T03:15:13;28.56;24.31;35.49;;
81493;Laerm;70900;51.798;10.954;2024-02-04T03:17:38;28.41;24.64;35.11;;
81493;Laerm;70900;51.798;10.954;2024-02-04T03:20:04;30.65;24.98;45.06;;
81493;Laerm;70900;51.798;10.954;2024-02-04T03:22:29;29.73;24.78;40.64;;
81493;Laerm;70900;51.798;10.954;2024-02-04T03:24:55;48.30;27.17;67.28;;
81493;Laerm;70900;51.798;10.954;2024-02-04T03:27:20;31.89;24.32;62.40;;
81493;Laerm;70900;51.798;10.954;2024-02-04T03:29:46;30.34;24.66;40.89;;
81493;Laerm;70900;51.798;10.954;2024-02-04T03:32:12;30.92;24.29;42.42;;
81493;Laerm;70900;51.798;10.954;2024-02-04T03:34:37;32.99;26.80;46.32;;
81493;Laerm;70900;51.798;10.954;2024-02-04T03:37:04;31.34;25.04;37.49;;
81493;Laerm;70900;51.798;10.954;2024-02-04T03:39:30;33.22;25.00;55.83;;
81493;Laerm;70900;51.798;10.954;2024-02-04T03:41:55;30.96;25.21;38.65;;
81493;Laerm;70900;51.798;10.954;2024-02-04T03:44:20;36.05;24.64;59.66;;
81493;Laerm;70900;51.798;10.954;2024-02-04T03:46:49;53.31;26.11;68.08;;
81493;Laerm;70900;51.798;10.954;2024-02-04T03:49:15;47.44;25.50;66.59;;
81493;Laerm;70900;51.798;10.954;2024-02-04T03:51:41;43.54;24.22;62.51;;
81493;Laerm;70900;51.798;10.954;2024-02-04T03:54:06;31.53;26.74;41.98;;
81493;Laerm;70900;51.798;10.954;2024-02-04T03:56:31;34.99;26.20;56.48;;
81493;Laerm;70900;51.798;10.954;2024-02-04T03:58:57;35.45;25.91;54.38;;
81493;Laerm;70900;51.798;10.954;2024-02-04T04:01:22;34.96;25.38;52.67;;
81493;Laerm;70900;51.798;10.954;2024-02-04T04:03:47;37.44;24.66;56.34;;
81493;Laerm;70900;51.798;10.954;2024-02-04T04:06:13;29.47;25.31;39.81;;
81493;Laerm;70900;51.798;10.954;2024-02-04T04:08:38;28.52;24.54;35.08;;
81493;Laerm;70900;51.798;10.954;2024-02-04T04:11:04;31.23;26.26;44.33;;
81493;Laerm;70900;51.798;10.954;2024-02-04T04:13:29;30.73;25.55;44.67;;
81493;Laerm;70900;51.798;10.954;2024-02-04T04:15:55;31.00;24.39;45.07;;
81493;Laerm;70900;51.798;10.954;2024-02-04T04:18:20;53.97;27.00;71.65;;
81493;Laerm;70900;51.798;10.954;2024-02-04T04:20:46;36.60;24.17;56.21;;
81493;Laerm;70900;51.798;10.954;2024-02-04T04:23:12;32.47;25.02;50.04;;
81493;Laerm;70900;51.798;10.954;2024-02-04T04:25:37;41.03;25.30;62.34;;
81493;Laerm;70900;51.798;10.954;2024-02-04T04:28:03;41.65;22.99;63.88;;
81493;Laerm;70900;51.798;10.954;2024-02-04T04:30:28;40.74;23.63;64.02;;
81493;Laerm;70900;51.798;10.954;2024-02-04T04:32:54;35.60;25.00;63.30;;
81493;Laerm;70900;51.798;10.954;2024-02-04T04:35:19;35.26;24.13;58.25;;
81493;Laerm;70900;51.798;10.954;2024-02-04T04:37:44;40.05;24.71;59.08;;
81493;Laerm;70900;51.798;10.954;2024-02-04T04:40:10;40.40;25.45;57.61;;
81493;Laerm;70900;51.798;10.954;2024-02-04T04:42:35;32.89;24.87;52.72;;
81493;Laerm;70900;51.798;10.954;2024-02-04T04:45:01;35.27;25.23;54.58;;
81493;Laerm;70900;51.798;10.954;2024-02-04T04:47:26;34.40;26.24;54.15;;
81493;Laerm;70900;51.798;10.954;2024-02-04T04:49:52;35.11;24.42;53.70;;
81493;Laerm;70900;51.798;10.954;2024-02-04T04:52:17;38.10;25.53;56.53;;
81493;Laerm;70900;51.798;10.954;2024-02-04T04:54:42;30.90;25.15;54.10;;
81493;Laerm;70900;51.798;10.954;2024-02-04T04:57:08;30.36;24.90;46.92;;
81493;Laerm;70900;51.798;10.954;2024-02-04T04:59:33;50.63;25.35;70.22;;
81493;Laerm;70900;51.798;10.954;2024-02-04T05:02:01;30.94;25.77;38.24;;
81493;Laerm;70900;51.798;10.954;2024-02-04T05:04:27;31.24;24.94;53.41;;
81493;Laerm;70900;51.798;10.954;2024-02-04T05:06:52;52.33;25.00;67.27;;
81493;Laerm;70900;51.798;10.954;2024-02-04T05:09:17;44.03;26.88;62.85;;
81493;Laerm;70900;51.798;10.954;2024-02-04T05:11:43;31.19;25.39;50.23;;
81493;Laerm;70900;51.798;10.954;2024-02-04T05:14:08;52.62;26.29;70.12;;
81493;Laerm;70900;51.798;10.954;2024-02-04T05:16:34;36.32;25.31;55.44;;
81493;Laerm;70900;51.798;10.954;2024-02-04T05:19:01;30.11;26.57;46.42;;
81493;Laerm;70900;51.798;10.954;2024-02-04T05:21:27;46.83;25.93;61.71;;
81493;Laerm;70900;51.798;10.954;2024-02-04T05:23:52;32.46;26.48;50.60;;
81493;Laerm;70900;51.798;10.954;2024-02-04T05:26:17;29.70;26.32;45.44;;
81493;Laerm;70900;51.798;10.954;2024-02-04T05:28:44;49.35;25.07;68.85;;
81493;Laerm;70900;51.798;10.954;2024-02-04T05:31:09;31.97;25.81;40.78;;
81493;Laerm;70900;51.798;10.954;2024-02-04T05:33:34;33.69;26.96;44.51;;
81493;Laerm;70900;51.798;10.954;2024-02-04T05:36:00;34.21;28.03;54.36;;
81493;Laerm;70900;51.798;10.954;2024-02-04T05:38:25;32.88;25.85;41.06;;
81493;Laerm;70900;51.798;10.954;2024-02-04T05:40:51;34.42;29.23;52.07;;
81493;Laerm;70900;51.798;10.954;2024-02-04T05:43:16;30.48;26.41;40.93;;
81493;Laerm;70900;51.798;10.954;2024-02-04T05:45:42;32.49;27.22;46.72;;
81493;Laerm;70900;51.798;10.954;2024-02-04T05:48:07;42.26;27.42;60.07;;
81493;Laerm;70900;51.798;10.954;2024-02-04T05:50:33;51.06;27.71;69.43;;
81493;Laerm;70900;51.798;10.954;2024-02-04T05:52:58;34.78;28.31;48.78;;
81493;Laerm;70900;51.798;10.954;2024-02-04T05:55:24;49.57;29.13;65.12;;
81493;Laerm;70900;51.798;10.954;2024-02-04T05:57:49;37.18;29.26;52.86;;
81493;Laerm;70900;51.798;10.954;2024-02-04T06:00:15;40.10;27.81;55.10;;
81493;Laerm;70900;51.798;10.954;2024-02-04T06:02:40;40.96;28.84;57.25;;
81493;Laerm;70900;51.798;10.954;2024-02-04T06:05:08;46.82;30.03;64.63;;
81493;Laerm;70900;51.798;10.954;2024-02-04T06:07:33;43.45;31.24;62.51;;
81493;Laerm;70900;51.798;10.954;2024-02-04T06:09:59;51.81;34.08;69.80;;
81493;Laerm;70900;51.798;10.954;2024-02-04T06:12:25;38.11;32.79;48.94;;
81493;Laerm;70900;51.798;10.954;2024-02-04T06:14:50;41.17;33.60;57.99;;
81493;Laerm;70900;51.798;10.954;2024-02-04T06:17:16;36.68;31.67;45.32;;
81493;Laerm;70900;51.798;10.954;2024-02-04T06:19:41;40.19;33.40;54.94;;
81493;Laerm;70900;51.798;10.954;2024-02-04T06:22:07;52.40;34.35;77.20;;
81493;Laerm;70900;51.798;10.954;2024-02-04T06:24:32;44.63;35.74;69.27;;
81493;Laerm;70900;51.798;10.954;2024-02-04T06:26:57;48.90;35.94;63.08;;
81493;Laerm;70900;51.798;10.954;2024-02-04T06:29:23;44.68;33.26;61.66;;
81493;Laerm;70900;51.798;10.954;2024-02-04T06:31:48;42.35;34.00;60.09;;
81493;Laerm;70900;51.798;10.954;2024-02-04T06:34:14;43.59;32.99;60.54;;
81493;Laerm;70900;51.798;10.954;2024-02-04T06:36:42;51.15;38.48;66.49;;
81493;Laerm;70900;51.798;10.954;2024-02-04T06:39:08;44.71;35.77;52.45;;
81493;Laerm;70900;51.798;10.954;2024-02-04T06:41:34;47.22;39.29;61.67;;
81493;Laerm;70900;51.798;10.954;2024-02-04T06:44:00;49.60;39.22;59.64;;
81493;Laerm;70900;51.798;10.954;2024-02-04T06:46:25;42.20;35.86;53.32;;
81493;Laerm;70900;51.798;10.954;2024-02-04T06:48:51;46.26;37.40;56.39;;
81493;Laerm;70900;51.798;10.954;2024-02-04T06:51:16;46.08;36.63;55.94;;
81493;Laerm;70900;51.798;10.954;2024-02-04T06:53:42;46.75;38.85;65.34;;
81493;Laerm;70900;51.798;10.954;2024-02-04T06:56:07;55.93;33.65;70.28;;
81493;Laerm;70900;51.798;10.954;2024-02-04T06:58:32;40.14;33.52;50.94;;
81493;Laerm;70900;51.798;10.954;2024-02-04T07:00:58;50.48;35.73;66.50;;
81493;Laerm;70900;51.798;10.954;2024-02-04T07:03:23;52.74;38.12;65.61;;
81493;Laerm;70900;51.798;10.954;2024-02-04T07:05:49;50.48;36.02;61.89;;
81493;Laerm;70900;51.798;10.954;2024-02-04T07:08:14;44.70;36.05;60.93;;
81493;Laerm;70900;51.798;10.954;2024-02-04T07:10:40;51.72;35.13;67.72;;
81493;Laerm;70900;51.798;10.954;2024-02-04T07:13:05;47.12;37.42;57.87;;
81493;Laerm;70900;51.798;10.954;2024-02-04T07:15:31;50.86;38.09;65.47;;
81493;Laerm;70900;51.798;10.954;2024-02-04T07:17:56;44.42;37.01;63.32;;
81493;Laerm;70900;51.798;10.954;2024-02-04T07:20:22;42.36;34.57;55.36;;
81493;Laerm;70900;51.798;10.954;2024-02-04T07:22:47;48.10;35.62;60.33;;
81493;Laerm;70900;51.798;10.954;2024-02-04T07:25:12;44.30;35.37;56.56;;
81493;Laerm;70900;51.798;10.954;2024-02-04T07:27:38;45.77;36.97;60.45;;
81493;Laerm;70900;51.798;10.954;2024-02-04T07:30:03;57.12;37.24;75.00;;
81493;Laerm;70900;51.798;10.954;2024-02-04T07:32:30;47.77;38.30;60.57;;
81493;Laerm;70900;51.798;10.954;2024-02-04T07:34:55;48.75;38.82;64.92;;
81493;Laerm;70900;51.798;10.954;2024-02-04T07:37:20;53.98;36.43;67.29;;
81493;Laerm;70900;51.798;10.954;2024-02-04T07:39:46;47.58;36.77;68.80;;
81493;Laerm;70900;51.798;10.954;2024-02-04T07:42:11;51.63;42.24;66.55;;
81493;Laerm;70900;51.798;10.954;2024-02-04T07:44:37;51.62;41.23;77.26;;
81493;Laerm;70900;51.798;10.954;2024-02-04T07:47:02;50.10;38.41;65.66;;
81493;Laerm;70900;51.798;10.954;2024-02-04T07:49:27;51.30;40.49;65.95;;
81493;Laerm;70900;51.798;10.954;2024-02-04T07:51:53;50.13;39.13;63.57;;
81493;Laerm;70900;51.798;10.954;2024-02-04T07:54:19;52.38;36.42;71.16;;
81493;Laerm;70900;51.798;10.954;2024-02-04T07:56:44;53.10;40.35;69.08;;
81493;Laerm;70900;51.798;10.954;2024-02-04T07:59:10;56.75;38.91;73.31;;
81493;Laerm;70900;51.798;10.954;2024-02-04T08:01:36;53.83;39.83;69.78;;
81493;Laerm;70900;51.798;10.954;2024-02-04T08:04:01;51.21;39.40;67.37;;
81493;Laerm;70900;51.798;10.954;2024-02-04T08:06:27;47.38;39.46;60.99;;
81493;Laerm;70900;51.798;10.954;2024-02-04T08:08:53;43.37;38.00;55.47;;
81493;Laerm;70900;51.798;10.954;2024-02-04T08:11:18;48.90;39.14;68.64;;
81493;Laerm;70900;51.798;10.954;2024-02-04T08:13:43;53.83;38.52;71.74;;
81493;Laerm;70900;51.798;10.954;2024-02-04T08:16:09;55.49;39.38;70.36;;
81493;Laerm;70900;51.798;10.954;2024-02-04T08:18:35;54.05;40.81;71.81;;
81493;Laerm;70900;51.798;10.954;2024-02-04T08:21:00;50.14;41.30;65.26;;
81493;Laerm;70900;51.798;10.954;2024-02-04T08:23:25;55.80;41.05;71.43;;
81493;Laerm;70900;51.798;10.954;2024-02-04T08:25:51;49.38;40.30;65.36;;
81493;Laerm;70900;51.798;10.954;2024-02-04T08:28:16;55.14;41.19;69.11;;
81493;Laerm;70900;51.798;10.954;2024-02-04T08:30:42;48.93;38.33;64.19;;
81493;Laerm;70900;51.798;10.954;2024-02-04T08:33:07;48.29;38.17;65.37;;
81493;Laerm;70900;51.798;10.954;2024-02-04T08:35:34;58.56;40.34;74.70;;
81493;Laerm;70900;51.798;10.954;2024-02-04T08:37:59;47.09;38.00;63.42;;
81493;Laerm;70900;51.798;10.954;2024-02-04T08:40:24;49.58;39.02;66.21;;
81493;Laerm;70900;51.798;10.954;2024-02-04T08:42:50;49.22;40.39;64.82;;
81493;Laerm;70900;51.798;10.954;2024-02-04T08:45:15;47.40;39.01;61.93;;
81493;Laerm;70900;51.798;10.954;2024-02-04T08:47:40;54.41;37.75;69.18;;
81493;Laerm;70900;51.798;10.954;2024-02-04T08:50:06;55.50;38.21;72.60;;
81493;Laerm;70900;51.798;10.954;2024-02-04T08:52:32;54.53;39.47;65.78;;
81493;Laerm;70900;51.798;10.954;2024-02-04T08:54:57;56.08;39.24;68.13;;
81493;Laerm;70900;51.798;10.954;2024-02-04T08:57:24;55.31;41.42;69.80;;
81493;Laerm;70900;51.798;10.954;2024-02-04T08:59:50;50.36;40.70;61.48;;
81493;Laerm;70900;51.798;10.954;2024-02-04T09:02:15;58.18;42.87;73.10;;
81493;Laerm;70900;51.798;10.954;2024-02-04T09:04:41;55.29;44.29;68.27;;
81493;Laerm;70900;51.798;10.954;2024-02-04T09:07:07;54.21;41.30;67.16;;
81493;Laerm;70900;51.798;10.954;2024-02-04T09:09:33;55.37;42.85;66.07;;
81493;Laerm;70900;51.798;10.954;2024-02-04T09:11:58;52.00;44.32;61.30;;
81493;Laerm;70900;51.798;10.954;2024-02-04T09:14:23;54.53;44.76;65.55;;
81493;Laerm;70900;51.798;10.954;2024-02-04T09:16:49;56.64;46.04;66.77;;
81493;Laerm;70900;51.798;10.954;2024-02-04T09:19:14;57.00;44.38;66.14;;
81493;Laerm;70900;51.798;10.954;2024-02-04T09:21:40;56.65;44.54;66.23;;
81493;Laerm;70900;51.798;10.954;2024-02-04T09:24:05;53.53;39.85;63.80;;
81493;Laerm;70900;51.798;10.954;2024-02-04T09:26:30;54.85;41.85;64.29;;
81493;Laerm;70900;51.798;10.954;2024-02-04T09:28:56;55.41;41.10;65.94;;
81493;Laerm;70900;51.798;10.954;2024-02-04T09:31:21;53.80;39.10;70.76;;
81493;Laerm;70900;51.798;10.954;2024-02-04T09:33:47;53.69;38.83;66.60;;
81493;Laerm;70900;51.798;10.954;2024-02-04T09:36:12;53.15;38.16;68.45;;
81493;Laerm;70900;51.798;10.954;2024-02-04T09:38:37;51.51;39.27;63.36;;
81493;Laerm;70900;51.798;10.954;2024-02-04T09:41:03;51.12;37.10;64.19;;
81493;Laerm;70900;51.798;10.954;2024-02-04T09:43:32;55.06;37.84;68.68;;
81493;Laerm;70900;51.798;10.954;2024-02-04T09:45:58;56.33;39.17;67.11;;
81493;Laerm;70900;51.798;10.954;2024-02-04T09:48:23;51.88;38.19;67.37;;
81493;Laerm;70900;51.798;10.954;2024-02-04T09:50:50;53.54;38.71;67.71;;
81493;Laerm;70900;51.798;10.954;2024-02-04T09:53:16;48.48;35.98;64.53;;
81493;Laerm;70900;51.798;10.954;2024-02-04T09:55:46;56.02;37.83;70.42;;
81493;Laerm;70900;51.798;10.954;2024-02-04T09:58:12;62.76;37.99;81.33;;
81493;Laerm;70900;51.798;10.954;2024-02-04T10:00:38;48.68;35.80;68.11;;
81493;Laerm;70900;51.798;10.954;2024-02-04T10:03:05;54.88;35.62;71.59;;
81493;Laerm;70900;51.798;10.954;2024-02-04T10:05:30;49.66;36.56;64.83;;
81493;Laerm;70900;51.798;10.954;2024-02-04T10:07:56;51.36;36.20;65.93;;
81493;Laerm;70900;51.798;10.954;2024-02-04T10:10:21;50.29;36.46;67.87;;
81493;Laerm;70900;51.798;10.954;2024-02-04T10:12:47;54.83;37.09;67.38;;
81493;Laerm;70900;51.798;10.954;2024-02-04T10:15:12;49.63;36.48;65.11;;
81493;Laerm;70900;51.798;10.954;2024-02-04T10:17:41;55.43;36.70;68.38;;
81493;Laerm;70900;51.798;10.954;2024-02-04T10:20:07;54.63;39.62;68.86;;
81493;Laerm;70900;51.798;10.954;2024-02-04T10:22:35;53.79;42.94;64.95;;
81493;Laerm;70900;51.798;10.954;2024-02-04T10:25:09;54.79;43.86;67.46;;
81493;Laerm;70900;51.798;10.954;2024-02-04T10:27:37;56.43;43.44;69.63;;
81493;Laerm;70900;51.798;10.954;2024-02-04T10:30:02;55.71;44.72;68.77;;
81493;Laerm;70900;51.798;10.954;2024-02-04T10:32:28;54.92;41.76;68.51;;
81493;Laerm;70900;51.798;10.954;2024-02-04T10:34:53;58.50;42.67;73.61;;
81493;Laerm;70900;51.798;10.954;2024-02-04T10:37:19;55.04;42.49;76.24;;
81493;Laerm;70900;51.798;10.954;2024-02-04T10:39:44;52.86;37.74;68.02;;
81493;Laerm;70900;51.798;10.954;2024-02-04T10:42:09;54.49;40.63;68.30;;
81493;Laerm;70900;51.798;10.954;2024-02-04T10:44:38;47.31;40.19;61.51;;
81493;Laerm;70900;51.798;10.954;2024-02-04T10:47:06;52.44;39.74;63.73;;
81493;Laerm;70900;51.798;10.954;2024-02-04T10:49:35;52.95;43.52;66.00;;
81493;Laerm;70900;51.798;10.954;2024-02-04T10:52:03;50.48;40.58;66.31;;
81493;Laerm;70900;51.798;10.954;2024-02-04T10:54:31;53.70;42.01;69.03;;
81493;Laerm;70900;51.798;10.954;2024-02-04T10:57:01;56.93;43.97;68.58;;
81493;Laerm;70900;51.798;10.954;2024-02-04T10:59:28;49.77;41.05;64.57;;
81493;Laerm;70900;51.798;10.954;2024-02-04T11:01:55;55.09;42.41;70.96;;
81493;Laerm;70900;51.798;10.954;2024-02-04T11:04:21;52.83;41.77;67.44;;
81493;Laerm;70900;51.798;10.954;2024-02-04T11:06:47;56.01;40.93;67.33;;
81493;Laerm;70900;51.798;10.954;2024-02-04T11:09:13;51.55;40.06;65.25;;
81493;Laerm;70900;51.798;10.954;2024-02-04T11:11:39;44.96;39.64;57.73;;
81493;Laerm;70900;51.798;10.954;2024-02-04T11:14:06;53.11;40.84;67.92;;
81493;Laerm;70900;51.798;10.954;2024-02-04T11:21:48;53.38;40.57;65.75;;
81493;Laerm;70900;51.798;10.954;2024-02-04T11:27:02;50.30;41.22;67.30;;
81493;Laerm;70900;51.798;10.954;2024-02-04T11:29:28;49.17;39.78;62.17;;
81493;Laerm;70900;51.798;10.954;2024-02-04T11:31:53;53.53;39.90;66.89;;
81493;Laerm;70900;51.798;10.954;2024-02-04T11:34:19;55.73;40.48;73.83;;
81493;Laerm;70900;51.798;10.954;2024-02-04T11:36:44;55.10;39.41;69.62;;
81493;Laerm;70900;51.798;10.954;2024-02-04T11:39:13;58.93;43.42;74.15;;
81493;Laerm;70900;51.798;10.954;2024-02-04T11:41:45;46.69;39.87;61.72;;
81493;Laerm;70900;51.798;10.954;2024-02-04T11:44:12;48.66;38.74;63.90;;
81493;Laerm;70900;51.798;10.954;2024-02-04T11:46:37;47.38;39.61;60.20;;
81493;Laerm;70900;51.798;10.954;2024-02-04T11:49:03;51.01;39.20;66.11;;
81493;Laerm;70900;51.798;10.954;2024-02-04T11:51:29;53.12;38.77;67.06;;
81493;Laerm;70900;51.798;10.954;2024-02-04T11:53:55;49.79;41.22;66.07;;
81493;Laerm;70900;51.798;10.954;2024-02-04T11:56:21;47.59;40.63;61.43;;
81493;Laerm;70900;51.798;10.954;2024-02-04T11:58:46;52.45;40.30;67.67;;
81493;Laerm;70900;51.798;10.954;2024-02-04T12:01:12;48.20;37.70;63.45;;
81493;Laerm;70900;51.798;10.954;2024-02-04T12:03:38;53.91;39.30;68.74;;
81493;Laerm;70900;51.798;10.954;2024-02-04T12:06:03;44.86;38.98;62.66;;
81493;Laerm;70900;51.798;10.954;2024-02-04T12:08:32;51.08;40.06;63.36;;
81493;Laerm;70900;51.798;10.954;2024-02-04T12:10:59;52.20;39.85;66.64;;
81493;Laerm;70900;51.798;10.954;2024-02-04T12:13:25;48.15;40.77;61.69;;
81493;Laerm;70900;51.798;10.954;2024-02-04T12:15:50;53.86;40.32;68.89;;
81493;Laerm;70900;51.798;10.954;2024-02-04T12:18:16;54.86;43.25;67.17;;
81493;Laerm;70900;51.798;10.954;2024-02-04T12:20:45;54.23;43.43;73.33;;
81493;Laerm;70900;51.798;10.954;2024-02-04T12:23:12;53.89;45.26;67.09;;
81493;Laerm;70900;51.798;10.954;2024-02-04T12:25:37;50.40;41.45;60.44;;
81493;Laerm;70900;51.798;10.954;2024-02-04T12:28:03;54.50;43.17;73.58;;
81493;Laerm;70900;51.798;10.954;2024-02-04T12:30:29;51.89;42.67;69.19;;
81493;Laerm;70900;51.798;10.954;2024-02-04T12:32:55;54.98;43.39;69.02;;
81493;Laerm;70900;51.798;10.954;2024-02-04T12:35:21;54.42;42.02;67.35;;
81493;Laerm;70900;51.798;10.954;2024-02-04T12:37:50;55.96;44.12;66.00;;
81493;Laerm;70900;51.798;10.954;2024-02-04T12:40:25;47.61;41.43;65.00;;
81493;Laerm;70900;51.798;10.954;2024-02-04T12:42:57;52.44;42.66;66.28;;
81493;Laerm;70900;51.798;10.954;2024-02-04T12:45:23;50.88;41.41;63.31;;
81493;Laerm;70900;51.798;10.954;2024-02-04T12:47:52;48.22;42.38;59.35;;
81493;Laerm;70900;51.798;10.954;2024-02-04T12:50:17;52.80;42.23;66.55;;
81493;Laerm;70900;51.798;10.954;2024-02-04T12:52:46;56.42;42.82;71.45;;
81493;Laerm;70900;51.798;10.954;2024-02-04T12:55:22;54.53;42.96;66.07;;
81493;Laerm;70900;51.798;10.954;2024-02-04T12:57:48;56.64;42.97;72.20;;
81493;Laerm;70900;51.798;10.954;2024-02-04T13:00:17;54.75;43.81;68.59;;
81493;Laerm;70900;51.798;10.954;2024-02-04T13:02:42;49.54;43.36;72.13;;
81493;Laerm;70900;51.798;10.954;2024-02-04T13:05:08;54.68;42.71;67.66;;
81493;Laerm;70900;51.798;10.954;2024-02-04T13:07:34;49.71;42.92;59.33;;
81493;Laerm;70900;51.798;10.954;2024-02-04T13:09:59;49.58;42.15;68.04;;
81493;Laerm;70900;51.798;10.954;2024-02-04T13:12:25;53.07;45.17;69.49;;
81493;Laerm;70900;51.798;10.954;2024-02-04T13:14:50;54.80;43.31;69.90;;
81493;Laerm;70900;51.798;10.954;2024-02-04T13:17:16;58.84;43.48;79.70;;
81493;Laerm;70900;51.798;10.954;2024-02-04T13:19:41;53.23;42.83;67.97;;
81493;Laerm;70900;51.798;10.954;2024-02-04T13:22:07;56.42;44.06;70.32;;
81493;Laerm;70900;51.798;10.954;2024-02-04T13:24:37;54.81;42.85;66.78;;
81493;Laerm;70900;51.798;10.954;2024-02-04T13:27:04;52.53;42.71;67.76;;
81493;Laerm;70900;51.798;10.954;2024-02-04T13:29:31;53.63;39.99;71.92;;
81493;Laerm;70900;51.798;10.954;2024-02-04T13:31:56;47.77;40.31;63.75;;
81493;Laerm;70900;51.798;10.954;2024-02-04T13:34:22;57.27;42.99;72.13;;
81493;Laerm;70900;51.798;10.954;2024-02-04T13:36:47;55.61;43.29;70.78;;